Time;durP1;ratioP1;P1;durP2;ratioP2;P2;SDS_P1;SDS_P2;PMS_P1;PMS_P2;Temp;Humidity;BMP_temperature;BMP_pressure;BME280_temperature;BME280_humidity;BME280_pressure;Samples;Min_cycle;Max_cycle;Signal;HPM_P1;HPM_P2
2022/10/28 00:04:48;;;;;;;1.70;1.45;;;;;;;8.17;100.00;100971.00;10438232;28;20550;-84
2022/10/28 00:09:50;;;;;;;1.95;1.38;;;;;;;8.22;100.00;100962.03;10426653;28;20033;-85
2022/10/28 00:14:52;;;;;;;1.30;1.20;;;;;;;8.25;100.00;100966.97;10426997;28;20041;-81
2022/10/28 00:19:55;;;;;;;3.00;1.58;;;;;;;8.29;100.00;100958.00;10443516;28;20053;-74
2022/10/28 00:24:57;;;;;;;1.30;1.20;;;;;;;8.32;100.00;100965.66;10434083;28;20641;-74
2022/10/28 00:30:00;;;;;;;2.60;1.65;;;;;;;8.38;100.00;100959.22;10443052;28;20044;-75
2022/10/28 00:35:02;;;;;;;1.40;1.30;;;;;;;8.41;100.00;100952.41;10442746;28;20500;-74
2022/10/28 00:40:04;;;;;;;2.30;1.52;;;;;;;8.44;100.00;100954.63;10441854;28;20053;-75
2022/10/28 00:45:08;;;;;;;3.00;2.15;;;;;;;8.50;100.00;100960.94;10441098;28;20048;-75
2022/10/28 00:50:44;;;;;;;2.10;1.73;;;;;;;8.54;100.00;100954.72;10442127;28;20041;-75
2022/10/28 00:55:47;;;;;;;2.15;1.67;;;;;;;8.60;100.00;100961.06;10422588;28;20405;-75
2022/10/28 01:00:49;;;;;;;2.17;1.90;;;;;;;8.63;100.00;100957.78;10448369;28;20041;-75
2022/10/28 01:05:52;;;;;;;2.28;1.65;;;;;;;8.65;100.00;100952.88;10425835;28;20040;-75
2022/10/28 01:11:15;;;;;;;4.00;1.80;;;;;;;8.68;100.00;100941.44;10445826;28;20037;-75
2022/10/28 01:16:32;;;;;;;1.77;1.52;;;;;;;8.68;100.00;100939.53;10453256;28;20042;-76
2022/10/28 01:21:48;;;;;;;2.72;2.25;;;;;;;8.71;100.00;100939.00;10445723;28;20537;-74
2022/10/28 01:27:11;;;;;;;2.55;1.95;;;;;;;8.71;100.00;100928.06;10481170;28;20507;-76
2022/10/28 01:32:32;;;;;;;2.25;1.45;;;;;;;8.75;100.00;100929.19;10444076;28;20048;-76
2022/10/28 01:37:58;;;;;;;2.35;1.70;;;;;;;8.76;100.00;100919.88;10464149;28;20052;-75
2022/10/28 01:43:14;;;;;;;3.28;1.67;;;;;;;8.79;100.00;100918.53;10488217;28;20149;-76
2022/10/28 01:48:50;;;;;;;3.72;2.15;;;;;;;8.80;100.00;100922.09;10474291;28;20407;-75
2022/10/28 01:53:54;;;;;;;2.75;1.70;;;;;;;8.81;100.00;100921.00;10466906;28;20053;-75
2022/10/28 01:58:58;;;;;;;2.15;1.70;;;;;;;8.83;100.00;100913.34;10451250;28;20435;-75
2022/10/28 02:04:01;;;;;;;2.92;1.98;;;;;;;8.83;100.00;100907.88;10445327;28;20049;-75
2022/10/28 02:09:15;;;;;;;4.10;2.10;;;;;;;8.87;100.00;100911.75;10447892;28;20049;-76
2022/10/28 02:14:41;;;;;;;2.40;1.98;;;;;;;8.89;100.00;100912.31;10447833;28;20057;-76
2022/10/28 02:20:02;;;;;;;2.65;1.70;;;;;;;8.92;100.00;100909.88;10444342;28;20060;-74
2022/10/28 02:25:08;;;;;;;3.15;2.00;;;;;;;8.95;100.00;100906.59;10445587;28;20044;-75
2022/10/28 02:30:16;;;;;;;1.83;1.65;;;;;;;8.98;100.00;100906.06;10449309;28;20504;-74
2022/10/28 02:35:35;;;;;;;2.42;2.10;;;;;;;9.00;100.00;100894.84;10454137;28;20052;-75
2022/10/28 02:40:38;;;;;;;3.40;2.08;;;;;;;9.01;100.00;100908.28;10416278;28;20049;-75
2022/10/28 02:45:42;;;;;;;4.38;2.10;;;;;;;9.04;100.00;100909.69;10461369;28;20041;-75
2022/10/28 02:50:49;;;;;;;3.20;2.00;;;;;;;9.04;100.00;100917.91;10451265;28;20531;-75
2022/10/28 02:55:53;;;;;;;4.75;2.42;;;;;;;9.05;100.00;100911.34;10454780;28;20037;-74
2022/10/28 03:00:55;;;;;;;2.75;2.33;;;;;;;9.04;100.00;100909.69;10470155;28;20444;-74
2022/10/28 03:05:57;;;;;;;5.30;2.38;;;;;;;9.03;100.00;100914.34;10444938;28;20052;-74
2022/10/28 03:10:59;;;;;;;2.80;2.08;;;;;;;9.00;100.00;100914.84;10444819;28;20419;-75
2022/10/28 03:16:01;;;;;;;2.72;2.25;;;;;;;8.97;100.00;100898.13;10462085;28;20037;-75
2022/10/28 03:21:03;;;;;;;3.40;2.30;;;;;;;8.94;100.00;100906.88;10446048;28;20523;-76
2022/10/28 03:26:06;;;;;;;3.90;2.13;;;;;;;8.94;100.00;100899.47;10454363;28;20048;-75
2022/10/28 03:31:08;;;;;;;4.00;2.30;;;;;;;8.94;100.00;100895.91;10465780;28;20044;-75
2022/10/28 03:36:10;;;;;;;3.88;2.58;;;;;;;8.97;100.00;100898.13;10454364;28;20052;-74
2022/10/28 03:41:12;;;;;;;4.65;2.15;;;;;;;8.99;100.00;100888.56;10484948;28;20507;-75
2022/10/28 03:46:14;;;;;;;3.67;2.85;;;;;;;9.04;100.00;100887.78;10480001;28;20047;-74
2022/10/28 03:51:17;;;;;;;5.38;3.25;;;;;;;9.04;100.00;100883.13;10483997;28;20049;-74
2022/10/28 03:56:19;;;;;;;5.68;2.72;;;;;;;9.06;100.00;100886.44;10479844;28;20048;-74
2022/10/28 04:01:21;;;;;;;3.72;2.50;;;;;;;9.07;100.00;100876.31;10453117;28;20521;-74
2022/10/28 04:06:23;;;;;;;5.65;2.83;;;;;;;9.11;100.00;100882.06;10481040;28;20052;-77
2022/10/28 04:11:25;;;;;;;6.45;2.67;;;;;;;9.13;100.00;100866.19;10472990;28;20064;-75
2022/10/28 04:16:28;;;;;;;3.95;2.55;;;;;;;9.14;100.00;100865.09;10463063;28;20045;-74
2022/10/28 04:21:30;;;;;;;5.28;3.10;;;;;;;9.17;100.00;100865.38;10439392;28;20038;-77
2022/10/28 04:26:32;;;;;;;2.60;2.08;;;;;;;9.18;100.00;100849.78;10440408;28;20045;-75
2022/10/28 04:31:34;;;;;;;5.72;2.83;;;;;;;9.17;100.00;100859.91;10421995;28;20077;-74
2022/10/28 04:36:37;;;;;;;3.88;2.03;;;;;;;9.20;100.00;100847.59;10452210;28;20053;-76
2022/10/28 04:41:39;;;;;;;5.03;2.65;;;;;;;9.19;100.00;100849.50;10450899;28;20064;-74
2022/10/28 04:46:41;;;;;;;5.75;2.97;;;;;;;9.19;100.00;100849.50;10450762;28;20415;-75
2022/10/28 04:51:43;;;;;;;5.95;3.17;;;;;;;9.19;100.00;100846.78;10452119;28;20044;-75
2022/10/28 04:56:45;;;;;;;5.47;2.90;;;;;;;9.22;100.00;100848.19;10434506;28;20500;-75
2022/10/28 05:01:47;;;;;;;7.05;3.03;;;;;;;9.23;100.00;100842.44;10459066;28;20499;-75
2022/10/28 05:06:49;;;;;;;4.80;2.85;;;;;;;9.21;100.00;100847.34;10448364;28;20033;-75
2022/10/28 05:11:53;;;;;;;4.85;2.92;;;;;;;9.21;100.00;100847.34;10444158;28;20057;-75
2022/10/28 05:16:55;;;;;;;5.38;3.08;;;;;;;9.19;100.00;100851.44;10448311;28;20041;-75
2022/10/28 05:21:58;;;;;;;8.00;3.80;;;;;;;9.16;100.00;100847.31;10444716;28;20041;-76
2022/10/28 05:27:00;;;;;;;7.47;4.05;;;;;;;9.19;100.00;100851.44;10483639;28;20045;-75
2022/10/28 05:32:08;;;;;;;8.10;3.33;;;;;;;9.19;100.00;100846.78;10470856;28;20030;-76
2022/10/28 05:37:10;;;;;;;5.60;3.47;;;;;;;9.21;100.00;100838.31;10434916;28;20423;-76
2022/10/28 05:42:13;;;;;;;6.05;3.28;;;;;;;9.26;100.00;100830.13;10445267;28;20045;-76
2022/10/28 05:47:15;;;;;;;8.07;3.28;;;;;;;9.27;100.00;100832.59;10448016;28;20056;-76
2022/10/28 05:52:17;;;;;;;8.13;3.50;;;;;;;9.30;100.00;100836.69;10448757;28;20037;-76
2022/10/28 05:57:20;;;;;;;6.32;3.40;;;;;;;9.29;100.00;100833.13;10415361;28;20045;-76
2022/10/28 06:02:22;;;;;;;9.65;3.58;;;;;;;9.28;100.00;100834.22;10449596;28;20041;-75
2022/10/28 06:07:25;;;;;;;6.38;3.70;;;;;;;9.30;100.00;100831.22;10448047;28;20050;-76
2022/10/28 06:12:27;;;;;;;6.00;3.47;;;;;;;9.31;100.00;100838.34;10450369;28;20500;-76
2022/10/28 06:17:30;;;;;;;8.10;3.33;;;;;;;9.35;100.00;100829.31;10448527;28;20412;-75
2022/10/28 06:22:32;;;;;;;8.18;3.50;;;;;;;9.38;100.00;100836.19;10405291;28;20049;-75
2022/10/28 06:27:34;;;;;;;9.30;3.42;;;;;;;9.38;100.00;100835.38;10440155;28;20419;-75
2022/10/28 06:32:36;;;;;;;6.07;3.25;;;;;;;9.39;100.00;100842.50;10448896;28;20512;-75
2022/10/28 06:37:38;;;;;;;7.68;3.10;;;;;;;9.38;100.00;100832.63;10431613;28;20045;-75
2022/10/28 06:42:41;;;;;;;8.05;3.38;;;;;;;9.41;100.00;100829.34;10447945;28;20144;-76
2022/10/28 06:47:43;;;;;;;5.55;3.20;;;;;;;9.42;100.00;100842.78;10449437;28;20045;-76
2022/10/28 06:52:45;;;;;;;7.95;3.28;;;;;;;9.43;100.00;100840.88;10448529;28;20053;-75
2022/10/28 06:57:48;;;;;;;12.40;3.97;;;;;;;9.43;100.00;100838.13;10449065;28;20061;-76
2022/10/28 07:02:52;;;;;;;10.02;3.33;;;;;;;9.45;100.00;100852.38;10446942;28;20068;-75
2022/10/28 07:07:54;;;;;;;6.78;3.25;;;;;;;9.45;100.00;100853.19;10445639;28;20125;-75
2022/10/28 07:12:56;;;;;;;7.63;3.60;;;;;;;9.43;100.00;100847.16;10445628;28;20049;-75
2022/10/28 07:17:59;;;;;;;5.40;2.83;;;;;;;9.46;100.00;100845.81;10445071;28;20530;-75
2022/10/28 07:23:01;;;;;;;9.05;4.15;;;;;;;9.47;100.00;100848.28;10443657;28;20049;-76
2022/10/28 07:28:03;;;;;;;9.02;2.67;;;;;;;9.50;100.00;100852.38;10444717;28;20048;-75
2022/10/28 07:33:05;;;;;;;8.52;2.50;;;;;;;9.51;100.00;100859.50;10445788;28;20044;-76
2022/10/28 07:38:08;;;;;;;8.30;3.10;;;;;;;9.54;100.00;100856.22;10444900;28;20539;-77
2022/10/28 07:43:10;;;;;;;10.98;4.10;;;;;;;9.55;100.00;100866.94;10445526;28;20057;-77
2022/10/28 07:48:12;;;;;;;7.95;3.35;;;;;;;9.56;100.00;100860.38;10443666;28;20048;-76
2022/10/28 07:53:15;;;;;;;7.18;3.65;;;;;;;9.53;100.00;100855.41;10443993;28;20049;-76
2022/10/28 07:58:17;;;;;;;5.65;2.35;;;;;;;9.54;100.00;100857.03;10444258;28;20116;-77
2022/10/28 08:03:19;;;;;;;9.68;3.33;;;;;;;9.55;100.00;100860.63;10443852;28;20045;-77
2022/10/28 08:08:21;;;;;;;4.57;2.50;;;;;;;9.55;100.00;100869.69;10441308;28;20056;-76
2022/10/28 08:13:24;;;;;;;5.95;2.30;;;;;;;9.57;100.00;100866.66;10443599;28;20053;-76
2022/10/28 08:18:26;;;;;;;8.20;3.08;;;;;;;9.64;100.00;100862.56;10452531;28;20057;-75
2022/10/28 08:23:28;;;;;;;7.00;2.70;;;;;;;9.67;100.00;100861.19;10444476;28;20060;-75
2022/10/28 08:28:30;;;;;;;9.27;2.92;;;;;;;9.72;100.00;100854.91;10443347;28;20416;-74
2022/10/28 08:33:34;;;;;;;8.30;3.17;;;;;;;9.74;100.00;100844.53;10443940;28;20049;-75
2022/10/28 08:38:36;;;;;;;8.90;2.75;;;;;;;9.68;100.00;100844.50;10443898;28;20049;-75
2022/10/28 08:44:09;;;;;;;9.13;3.20;;;;;;;9.75;100.00;100843.44;10426486;28;20049;-75
2022/10/28 08:49:13;;;;;;;7.47;2.80;;;;;;;9.74;100.00;100841.78;10432301;28;20041;-76
2022/10/28 08:54:26;;;;;;;10.95;3.03;;;;;;;9.69;100.00;100839.84;10443163;28;20038;-75
2022/10/28 08:59:31;;;;;;;11.07;2.78;;;;;;;9.71;100.00;100839.56;10441449;28;20060;-75
2022/10/28 09:04:39;;;;;;;7.68;3.28;;;;;;;9.72;100.00;100832.97;10430921;28;20038;-76
2022/10/28 09:09:42;;;;;;;8.30;2.70;;;;;;;9.69;100.00;100845.31;10408182;28;20041;-74
2022/10/28 09:15:05;;;;;;;5.22;2.63;;;;;;;9.66;100.00;100837.63;10432562;28;20044;-75
2022/10/28 09:20:19;;;;;;;6.93;2.92;;;;;;;9.62;100.00;100840.09;10450401;28;20045;-75
2022/10/28 09:25:22;;;;;;;8.95;2.90;;;;;;;9.61;100.00;100840.38;10452609;28;20065;-73
2022/10/28 09:30:35;;;;;;;8.85;2.55;;;;;;;9.61;100.00;100838.44;10451171;28;20057;-74
2022/10/28 09:35:40;;;;;;;9.48;2.60;;;;;;;9.60;100.00;100827.78;10444395;28;20060;-74
2022/10/28 09:40:48;;;;;;;6.53;2.50;;;;;;;9.59;100.00;100835.16;10427057;28;20137;-75
2022/10/28 09:45:52;;;;;;;7.10;2.85;;;;;;;9.63;100.00;100838.19;10449928;28;20049;-75
2022/10/28 09:50:56;;;;;;;9.80;2.50;;;;;;;9.62;100.00;100820.09;10449980;28;20523;-75
2022/10/28 09:55:58;;;;;;;5.63;2.38;;;;;;;9.59;100.00;100820.66;10449980;28;20033;-75
2022/10/28 10:01:04;;;;;;;6.40;3.28;;;;;;;9.54;100.00;100821.44;10447567;28;20570;-75
2022/10/28 10:06:24;;;;;;;6.35;2.63;;;;;;;9.51;100.00;100815.69;10444450;28;20046;-75
2022/10/28 10:11:31;;;;;;;7.95;2.67;;;;;;;9.50;100.00;100808.56;10440745;28;20048;-74
2022/10/28 10:16:42;;;;;;;5.05;2.20;;;;;;;9.47;100.00;100798.13;10440709;28;20060;-74
2022/10/28 10:21:47;;;;;;;4.32;2.10;;;;;;;9.45;100.00;100797.59;10414626;28;20048;-74
2022/10/28 10:26:53;;;;;;;3.50;2.20;;;;;;;9.50;100.00;100797.59;10449611;28;20050;-73
2022/10/28 10:32:29;;;;;;;4.70;1.98;;;;;;;9.49;100.00;100794.03;10465935;28;20099;-74
2022/10/28 10:37:35;;;;;;;4.10;2.40;;;;;;;9.51;100.00;100788.28;10468907;28;20050;-74
2022/10/28 10:42:37;;;;;;;4.05;2.20;;;;;;;9.50;100.00;100794.84;10430635;28;20052;-74
2022/10/28 10:47:39;;;;;;;4.00;1.95;;;;;;;9.49;100.00;100796.78;10445140;28;20056;-75
2022/10/28 10:52:50;;;;;;;6.28;2.13;;;;;;;9.50;100.00;100798.41;10447392;28;20041;-75
2022/10/28 10:57:53;;;;;;;5.03;1.90;;;;;;;9.53;100.00;100797.06;10443455;28;20042;-74
2022/10/28 11:02:55;;;;;;;12.85;3.00;;;;;;;9.53;100.00;100786.09;10447081;28;20452;-74
2022/10/28 11:08:03;;;;;;;9.00;2.45;;;;;;;9.53;100.00;100791.56;10465947;28;20060;-75
2022/10/28 11:13:22;;;;;;;;;;;;;;;9.55;100.00;100789.41;10446013;28;20045;-74
2022/10/28 11:18:25;;;;;;;6.22;2.58;;;;;;;9.65;100.00;100801.19;10443675;28;19920;-76
2022/10/28 11:23:27;;;;;;;7.03;2.17;;;;;;;9.66;100.00;100791.88;10443398;28;20052;-74
2022/10/28 11:28:41;;;;;;;12.30;3.35;;;;;;;9.68;100.00;100788.88;10443947;28;20052;-75
2022/10/28 11:34:13;;;;;;;3.10;1.67;;;;;;;9.68;100.00;100780.66;10444660;28;20049;-75
2022/10/28 11:39:41;;;;;;;6.32;3.00;;;;;;;9.67;100.00;100788.03;10450804;28;20061;-75
2022/10/28 11:45:01;;;;;;;6.90;3.40;;;;;;;9.64;100.00;100791.34;10435030;28;20046;-77
2022/10/28 11:50:22;;;;;;;6.20;3.28;;;;;;;9.61;100.00;100793.78;10445104;28;20037;-77
2022/10/28 12:00:17;;;;;;;7.85;3.15;;;;;;;9.52;100.00;100784.44;10661838;27;20179;-75
2022/10/28 12:05:23;;;;;;;5.65;2.45;;;;;;;9.54;100.00;100790.47;10662082;27;20516;-74
2022/10/28 12:10:34;;;;;;;2.72;1.83;;;;;;;9.49;100.00;100785.81;10627726;28;20047;-74
2022/10/28 12:15:44;;;;;;;5.95;2.63;;;;;;;9.45;100.00;100787.47;10638294;28;20043;-76
2022/10/28 12:21:06;;;;;;;3.22;2.10;;;;;;;9.36;100.00;100784.41;10645810;28;20050;-76
2022/10/28 12:26:12;;;;;;;6.80;2.47;;;;;;;9.39;100.00;100785.81;10600862;27;20036;-77
2022/10/28 12:31:17;;;;;;;4.38;1.80;;;;;;;9.40;100.00;100781.16;10623063;28;20042;-76
2022/10/28 12:36:41;;;;;;;5.60;2.00;;;;;;;9.43;100.00;100786.09;10632071;27;20417;-78
2022/10/28 12:41:58;;;;;;;8.15;2.55;;;;;;;9.42;100.00;100792.66;10652931;27;20440;-77
2022/10/28 12:47:12;;;;;;;8.18;2.17;;;;;;;9.42;100.00;100787.19;10636310;28;20035;-77
2022/10/28 12:52:32;;;;;;;4.78;1.95;;;;;;;9.44;100.00;100793.22;10641562;28;20054;-78
2022/10/28 12:57:36;;;;;;;11.75;2.63;;;;;;;9.44;100.00;100796.78;10625965;28;20054;-75
2022/10/28 13:03:00;;;;;;;11.60;2.80;;;;;;;9.42;100.00;100789.91;10610418;28;20036;-75
2022/10/28 13:08:21;;;;;;;10.60;2.38;;;;;;;9.41;100.00;100796.50;10633248;28;20051;-75
2022/10/28 13:13:41;;;;;;;10.50;2.47;;;;;;;9.44;100.00;100793.22;10604145;28;20520;-74
2022/10/28 13:19:20;;;;;;;8.55;2.30;;;;;;;9.45;100.00;100797.59;10615038;28;20040;-74
2022/10/28 13:24:36;;;;;;;9.35;2.45;;;;;;;9.46;100.00;100796.50;10617307;28;20043;-73
2022/10/28 13:29:40;;;;;;;7.78;2.20;;;;;;;9.47;100.00;100798.13;10607411;28;20043;-73
2022/10/28 13:34:42;;;;;;;6.53;1.90;;;;;;;9.44;100.00;100801.44;10587190;27;20047;-72
2022/10/28 13:39:45;;;;;;;6.55;1.98;;;;;;;9.54;100.00;100796.78;10639232;27;20043;-73
2022/10/28 13:44:54;;;;;;;3.58;1.70;;;;;;;9.53;100.00;100805.25;10582763;27;20050;-72
2022/10/28 13:50:09;;;;;;;2.10;1.77;;;;;;;9.59;100.00;100790.50;10588051;28;20035;-72
2022/10/28 13:55:42;;;;;;;4.68;2.00;;;;;;;9.61;100.00;100788.31;10580659;27;20055;-73
2022/10/28 14:00:44;;;;;;;4.90;1.98;;;;;;;9.56;100.00;100780.91;10590727;28;20043;-73
2022/10/28 14:05:47;;;;;;;9.45;2.30;;;;;;;9.54;100.00;100776.78;10574269;28;20490;-74
2022/10/28 14:11:04;;;;;;;5.78;1.90;;;;;;;9.55;100.00;100772.97;10601480;28;20039;-73
2022/10/28 14:16:39;;;;;;;5.75;2.30;;;;;;;9.63;100.00;100770.50;10608645;28;20054;-75
2022/10/28 14:22:00;;;;;;;6.97;1.80;;;;;;;9.60;100.00;100768.31;10597302;27;20044;-73
2022/10/28 14:27:06;;;;;;;4.38;1.63;;;;;;;9.63;100.00;100764.22;10611667;27;20035;-74
2022/10/28 14:32:41;;;;;;;6.95;1.75;;;;;;;9.74;100.00;100759.56;10594158;28;20055;-73
2022/10/28 14:38:19;;;;;;;5.72;1.90;;;;;;;9.83;100.00;100756.00;10549316;27;20044;-73
2022/10/28 14:43:43;;;;;;;9.18;1.92;;;;;;;9.76;100.00;100751.91;10547868;28;20039;-74
2022/10/28 14:48:53;;;;;;;12.55;2.15;;;;;;;10.08;100.00;100759.84;10585124;28;20054;-74
2022/10/28 14:53:57;;;;;;;4.63;2.03;;;;;;;9.93;100.00;100756.03;10586435;27;20050;-73
2022/10/28 14:59:28;;;;;;;4.25;1.90;;;;;;;10.11;100.00;100749.16;10596804;28;20055;-74
2022/10/28 15:04:30;;;;;;;6.82;2.03;;;;;;;10.11;100.00;100754.66;10604492;27;20406;-74
2022/10/28 15:09:33;;;;;;;6.68;2.40;;;;;;;9.97;99.64;100742.59;10598252;28;20036;-74
2022/10/28 15:14:55;;;;;;;7.80;2.72;;;;;;;10.02;99.78;100733.53;10619002;27;20413;-74
2022/10/28 15:19:59;;;;;;;5.97;2.45;;;;;;;10.00;99.49;100725.56;10597956;28;20062;-75
2022/10/28 15:25:10;;;;;;;6.75;2.65;;;;;;;9.90;99.49;100734.66;10608895;28;20122;-75
2022/10/28 15:30:17;;;;;;;6.95;1.95;;;;;;;9.87;99.44;100721.47;10593383;28;20437;-75
2022/10/28 15:35:26;;;;;;;6.97;2.70;;;;;;;9.75;99.53;100723.69;10587075;28;20047;-75
2022/10/28 15:40:31;;;;;;;6.70;2.55;;;;;;;9.72;99.83;100729.72;10600645;28;20035;-74
2022/10/28 15:45:34;;;;;;;10.65;2.33;;;;;;;9.82;99.36;100731.63;10586688;28;20043;-75
2022/10/28 15:50:36;;;;;;;9.32;3.17;;;;;;;9.80;99.93;100715.44;10583696;28;20039;-75
2022/10/28 15:55:45;;;;;;;6.22;2.55;;;;;;;10.02;100.00;100714.34;10589544;28;20055;-75
2022/10/28 16:00:51;;;;;;;6.57;3.20;;;;;;;10.18;100.00;100716.78;10582757;28;20039;-75
2022/10/28 16:05:58;;;;;;;10.57;3.42;;;;;;;10.36;99.28;100718.16;10586216;28;20067;-74
2022/10/28 16:11:07;;;;;;;12.40;3.03;;;;;;;10.41;98.13;100715.41;10590112;28;20048;-74
2022/10/28 16:16:13;;;;;;;11.75;2.80;;;;;;;10.57;97.32;100710.69;10573554;28;20055;-74
2022/10/28 16:21:18;;;;;;;5.90;2.55;;;;;;;10.58;96.29;100707.66;10571129;28;20493;-74
2022/10/28 16:26:28;;;;;;;3.83;2.10;;;;;;;10.42;95.53;100708.81;10572870;28;20036;-75
2022/10/28 16:31:30;;;;;;;4.18;2.17;;;;;;;10.24;95.39;100704.75;10577122;28;20043;-75
2022/10/28 16:36:32;;;;;;;5.85;2.20;;;;;;;10.33;95.80;100710.47;10576986;28;20040;-75
2022/10/28 16:41:35;;;;;;;5.30;1.90;;;;;;;10.27;95.58;100700.63;10580312;28;20044;-74
2022/10/28 16:46:37;;;;;;;2.53;1.83;;;;;;;10.25;95.95;100689.13;10591360;28;20044;-74
2022/10/28 16:51:39;;;;;;;5.78;2.58;;;;;;;10.18;95.98;100677.56;10595520;28;20414;-75
2022/10/28 16:56:41;;;;;;;7.47;2.30;;;;;;;10.25;96.09;100686.38;10606824;27;20052;-75
2022/10/28 17:01:43;;;;;;;5.97;2.20;;;;;;;10.35;96.38;100677.28;10593269;27;20035;-75
2022/10/28 17:06:46;;;;;;;6.90;2.63;;;;;;;10.33;96.13;100680.31;10604811;28;20040;-74
2022/10/28 17:11:48;;;;;;;9.27;2.72;;;;;;;10.58;95.58;100671.97;10589217;27;20059;-76
2022/10/28 17:16:51;;;;;;;9.73;2.75;;;;;;;10.62;95.11;100665.97;10589039;28;20056;-73
2022/10/28 17:21:53;;;;;;;9.57;3.70;;;;;;;10.64;94.69;100666.50;10589162;27;20047;-74
2022/10/28 17:26:55;;;;;;;8.27;2.58;;;;;;;10.68;94.58;100660.16;10577239;28;20059;-73
2022/10/28 17:31:57;;;;;;;7.05;2.85;;;;;;;10.71;93.93;100656.84;10590265;28;20055;-79
2022/10/28 17:37:02;;;;;;;12.15;4.50;;;;;;;10.70;93.82;100640.66;10582772;28;20031;-82
2022/10/28 17:42:04;;;;;;;7.25;2.15;;;;;;;10.60;93.64;100630.56;10598634;27;20040;-78
2022/10/28 17:47:07;;;;;;;7.00;2.78;;;;;;;10.44;94.03;100623.50;10606434;28;20038;-78
2022/10/28 17:52:09;;;;;;;11.93;3.25;;;;;;;10.42;95.23;100628.47;10612697;27;20055;-83
2022/10/28 17:57:11;;;;;;;6.78;3.53;;;;;;;10.44;95.82;100621.59;10623516;27;20047;-77
2022/10/28 18:02:14;;;;;;;7.97;2.33;;;;;;;10.48;96.43;100621.84;10592771;27;20047;-81
2022/10/28 18:07:17;;;;;;;6.50;2.75;;;;;;;10.43;97.22;100617.19;10606834;27;20043;-81
2022/10/28 18:12:19;;;;;;;12.35;2.78;;;;;;;10.49;98.34;100613.31;10588689;28;20035;-83
2022/10/28 18:17:21;;;;;;;8.45;3.38;;;;;;;10.65;98.17;100613.25;10593660;28;20047;-85
2022/10/28 18:22:23;;;;;;;7.10;2.60;;;;;;;10.51;97.59;100602.88;10598205;27;20626;-81
2022/10/28 18:27:27;;;;;;;6.70;2.78;;;;;;;10.29;97.90;100590.66;10600275;28;20032;-79
2022/10/28 18:32:32;;;;;;;4.05;2.10;;;;;;;10.11;99.21;100600.28;10578095;27;20044;-78
2022/10/28 18:37:35;;;;;;;4.25;2.10;;;;;;;10.13;99.49;100596.16;10570998;27;20039;-79
2022/10/28 18:42:38;;;;;;;3.72;2.10;;;;;;;10.21;99.86;100594.78;10575400;27;20040;-78
2022/10/28 18:47:40;;;;;;;5.15;1.83;;;;;;;10.10;100.00;100593.16;10569858;28;20047;-79
2022/10/28 18:52:42;;;;;;;5.32;2.40;;;;;;;10.17;100.00;100583.50;10601829;27;20036;-80
2022/10/28 18:57:48;;;;;;;6.28;2.08;;;;;;;10.08;100.00;100581.66;10575788;28;20044;-79
2022/10/28 19:02:51;;;;;;;2.83;1.83;;;;;;;9.93;100.00;100577.84;10570700;28;20040;-79
2022/10/28 19:07:53;;;;;;;2.88;1.73;;;;;;;9.94;100.00;100575.94;10586308;28;20044;-78
2022/10/28 19:12:55;;;;;;;6.28;2.10;;;;;;;10.20;100.00;100582.13;10590513;28;20051;-74
2022/10/28 19:17:57;;;;;;;6.50;2.70;;;;;;;10.26;100.00;100567.34;10601543;27;20055;-73
2022/10/28 19:23:00;;;;;;;4.65;1.60;;;;;;;10.39;100.00;100574.94;10607871;28;20035;-75
2022/10/28 19:28:03;;;;;;;3.28;1.60;;;;;;;10.39;99.97;100571.38;10602663;28;20505;-74
2022/10/28 19:33:05;;;;;;;2.55;1.52;;;;;;;10.43;99.65;100565.06;10582554;27;20044;-75
2022/10/28 19:38:08;;;;;;;5.22;1.77;;;;;;;10.38;99.21;100550.53;10591943;28;20513;-76
2022/10/28 19:43:10;;;;;;;3.55;1.40;;;;;;;10.30;98.50;100543.75;10586828;28;20048;-76
2022/10/28 19:48:12;;;;;;;2.22;1.65;;;;;;;10.32;98.26;100547.03;10594040;28;20044;-75
2022/10/28 19:53:14;;;;;;;4.35;1.90;;;;;;;10.36;98.93;100539.84;10591515;28;20132;-75
2022/10/28 19:58:16;;;;;;;4.85;1.50;;;;;;;10.30;98.65;100530.03;10599313;28;20066;-74
2022/10/28 20:03:18;;;;;;;1.98;1.40;;;;;;;10.43;98.51;100528.59;10590546;28;20043;-74
2022/10/28 20:08:20;;;;;;;5.88;1.73;;;;;;;10.40;98.16;100523.66;10608493;28;20043;-76
2022/10/28 20:13:23;;;;;;;2.33;1.35;;;;;;;10.49;97.70;100514.56;10613818;28;20049;-76
2022/10/28 20:18:25;;;;;;;3.45;1.20;;;;;;;10.45;98.50;100509.94;10606678;28;20476;-75
2022/10/28 20:23:27;;;;;;;2.47;1.27;;;;;;;10.57;97.73;100499.41;10582161;28;20031;-75
2022/10/28 20:28:29;;;;;;;2.25;1.27;;;;;;;10.56;97.26;100504.06;10621479;27;20048;-75
2022/10/28 20:33:31;;;;;;;4.00;1.20;;;;;;;10.56;98.26;100498.59;10622046;28;20084;-74
2022/10/28 20:38:34;;;;;;;1.50;1.20;;;;;;;10.47;98.43;100494.81;10608630;28;20520;-74
2022/10/28 20:43:36;;;;;;;2.90;1.30;;;;;;;10.36;99.23;100493.22;10592006;28;20390;-74
2022/10/28 20:48:38;;;;;;;1.25;1.02;;;;;;;10.58;99.51;100499.13;10618691;27;20054;-73
2022/10/28 20:53:40;;;;;;;1.35;0.95;;;;;;;10.56;99.71;100493.09;10607339;28;20059;-73
2022/10/28 20:58:43;;;;;;;1.63;1.00;;;;;;;10.46;99.64;100492.38;10601641;28;20047;-73
2022/10/28 21:03:45;;;;;;;1.80;1.05;;;;;;;10.37;100.00;100486.63;10616987;27;20090;-73
2022/10/28 21:08:47;;;;;;;1.50;1.08;;;;;;;10.40;100.00;100475.09;10616714;28;20482;-73
2022/10/28 21:13:52;;;;;;;1.40;0.95;;;;;;;10.57;100.00;100470.03;10574673;28;20032;-73
2022/10/28 21:18:54;;;;;;;1.42;1.10;;;;;;;10.47;100.00;100463.81;10601496;27;20046;-74
2022/10/28 21:23:56;;;;;;;0.85;0.80;;;;;;;10.35;100.00;100457.88;10634430;27;20049;-74
2022/10/28 21:28:59;;;;;;;2.25;1.15;;;;;;;10.44;100.00;100448.75;10598345;27;20043;-74
2022/10/28 21:34:01;;;;;;;1.90;1.13;;;;;;;10.45;100.00;100442.16;10581663;28;20042;-74
2022/10/28 21:39:03;;;;;;;1.60;1.15;;;;;;;10.52;100.00;100437.16;10597197;28;20058;-74
2022/10/28 21:44:05;;;;;;;2.08;1.35;;;;;;;10.60;100.00;100429.44;10583686;28;20044;-74
2022/10/28 21:49:08;;;;;;;1.30;1.20;;;;;;;10.63;100.00;100432.44;10605502;27;20039;-74
2022/10/28 21:54:10;;;;;;;1.33;1.10;;;;;;;10.69;100.00;100427.72;10611979;28;20051;-75
2022/10/28 21:59:12;;;;;;;1.38;1.27;;;;;;;10.64;100.00;100427.75;10577078;28;20075;-73
2022/10/28 22:04:17;;;;;;;1.08;0.98;;;;;;;10.58;100.00;100422.28;10600232;28;20422;-75
2022/10/28 22:09:19;;;;;;;0.80;0.80;;;;;;;10.58;100.00;100416.81;10573146;28;20043;-74
2022/10/28 22:14:22;;;;;;;1.00;0.90;;;;;;;10.52;100.00;100409.72;10613473;28;20036;-73
2022/10/28 22:19:24;;;;;;;1.20;0.75;;;;;;;10.66;100.00;100409.09;10613979;28;20047;-74
2022/10/28 22:24:26;;;;;;;1.17;1.02;;;;;;;10.69;100.00;100408.50;10614525;28;20035;-74
2022/10/28 22:29:29;;;;;;;1.30;0.75;;;;;;;10.65;100.00;100404.69;10615049;28;20052;-74
2022/10/28 22:34:31;;;;;;;1.25;0.82;;;;;;;10.72;100.00;100400.50;10593751;28;20043;-73
2022/10/28 22:39:33;;;;;;;0.73;0.73;;;;;;;10.76;100.00;100404.34;10610842;27;20051;-74
2022/10/28 22:44:35;;;;;;;1.17;0.80;;;;;;;10.71;100.00;100406.28;10610289;28;20034;-73
2022/10/28 22:49:37;;;;;;;2.30;0.80;;;;;;;10.56;100.00;100399.81;10595360;28;20047;-74
2022/10/28 22:54:40;;;;;;;0.60;0.60;;;;;;;10.72;100.00;100396.94;10605229;28;20047;-73
2022/10/28 22:59:42;;;;;;;0.60;0.60;;;;;;;10.67;100.00;100388.75;10612192;28;20055;-73
2022/10/28 23:04:44;;;;;;;0.98;0.73;;;;;;;10.63;100.00;100383.03;10597145;28;20216;-73
2022/10/28 23:09:46;;;;;;;1.27;0.70;;;;;;;10.77;100.00;100374.97;10587355;28;20051;-74
2022/10/28 23:14:51;;;;;;;2.33;0.70;;;;;;;10.77;100.00;100389.50;10605615;28;20517;-74
2022/10/28 23:19:53;;;;;;;0.50;0.50;;;;;;;10.80;100.00;100377.13;10582507;28;20046;-73
2022/10/28 23:24:55;;;;;;;0.90;0.60;;;;;;;10.80;100.00;100377.13;10585295;28;20426;-74
2022/10/28 23:29:57;;;;;;;0.63;0.50;;;;;;;10.67;100.00;100375.03;10592002;28;20043;-74
2022/10/28 23:34:59;;;;;;;0.57;0.43;;;;;;;10.61;100.00;100384.44;10605245;28;20035;-74